Time;durP1;ratioP1;P1;durP2;ratioP2;P2;SDS_P1;SDS_P2;PMS_P1;PMS_P2;Temp;Humidity;BMP_temperature;BMP_pressure;BME280_temperature;BME280_humidity;BME280_pressure;Samples;Min_cycle;Max_cycle;Signal;HPM_P1;HPM_P2
2022/01/25 00:35:49;;;;;;;13.48;7.40;;;7.60;80.80;;;;;;10750323;33;20197;-71
2022/01/25 00:41:51;;;;;;;11.18;7.70;;;7.60;80.90;;;;;;10384881;33;11963758;-71
2022/01/25 00:47:54;;;;;;;11.07;7.20;;;7.70;80.70;;;;;;10674870;33;20045;-70
2022/01/25 00:54:25;;;;;;;11.93;7.43;;;7.60;80.60;;;;;;10677242;33;20474;-70
2022/01/25 01:00:29;;;;;;;9.88;6.70;;;7.60;80.70;;;;;;10679947;33;20060;-71
2022/01/25 01:06:32;;;;;;;12.37;7.37;;;7.50;80.70;;;;;;10665683;33;20056;-70
2022/01/25 01:31:34;;;;;;;7.53;5.37;;;7.50;80.40;;;;;;10755009;33;20036;-70
2022/01/25 01:38:09;;;;;;;10.73;6.80;;;7.20;80.80;;;;;;10754883;33;20032;-70
2022/01/25 01:44:24;;;;;;;8.38;5.97;;;7.30;80.90;;;;;;10758406;27;20028;-70
2022/01/25 01:50:29;;;;;;;11.12;6.03;;;7.30;80.70;;;;;;10754481;33;20040;-70
2022/01/25 01:56:37;;;;;;;12.90;7.03;;;7.40;80.60;;;;;;10752022;33;20322;-73
2022/01/25 02:02:41;;;;;;;9.57;5.97;;;7.40;80.50;;;;;;10754269;33;20020;-73
2022/01/25 02:08:43;;;;;;;9.20;5.90;;;7.40;80.80;;;;;;10754034;33;20055;-73
2022/01/25 02:14:47;;;;;;;9.07;4.60;;;7.40;80.60;;;;;;10753811;33;20400;-73
2022/01/25 02:27:10;;;;;;;11.43;5.65;;;6.70;81.20;;;;;;10753475;33;20051;-73
2022/01/25 02:33:13;;;;;;;10.35;7.15;;;6.50;81.50;;;;;;10753276;33;20032;-73
2022/01/25 02:39:15;;;;;;;12.25;7.45;;;6.70;81.60;;;;;;10753367;33;20051;-73
2022/01/25 02:45:18;;;;;;;9.07;6.45;;;6.80;81.30;;;;;;10753065;33;20079;-73
2022/01/25 02:51:23;;;;;;;8.27;5.87;;;6.90;80.90;;;;;;10752856;33;20025;-73
2022/01/25 02:57:26;;;;;;;8.73;5.00;;;6.80;81.10;;;;;;10752675;33;20063;-73
2022/01/25 03:03:28;;;;;;;10.27;6.10;;;6.90;81.10;;;;;;10752329;33;20051;-73
2022/01/25 03:09:33;;;;;;;10.18;6.22;;;7.00;81.00;;;;;;10752380;33;20357;-73
2022/01/25 03:21:53;;;;;;;12.98;6.87;;;6.80;81.40;;;;;;10752002;33;20305;-73
2022/01/25 03:27:57;;;;;;;9.32;6.12;;;6.90;81.20;;;;;;10751789;33;20020;-73
2022/01/25 03:34:00;;;;;;;9.98;6.97;;;7.00;81.10;;;;;;10751596;33;20013;-74
2022/01/25 03:40:03;;;;;;;11.20;8.02;;;7.00;81.00;;;;;;10750195;33;20029;-73
2022/01/25 03:46:23;;;;;;;11.40;6.65;;;7.00;81.00;;;;;;10751549;33;20017;-73
2022/01/25 03:52:33;;;;;;;11.52;7.65;;;7.00;80.90;;;;;;10751202;33;20032;-73
2022/01/25 03:58:36;;;;;;;10.60;6.57;;;7.00;81.10;;;;;;10751245;33;20024;-73
2022/01/25 04:04:38;;;;;;;10.50;6.35;;;7.00;81.10;;;;;;10750996;33;20032;-73
2022/01/25 04:10:41;;;;;;;10.02;6.78;;;7.00;81.00;;;;;;10750878;33;20029;-73
2022/01/25 04:17:00;;;;;;;9.80;6.55;;;6.70;81.30;;;;;;10750640;33;20032;-73
2022/01/25 04:29:24;;;;;;;11.70;7.25;;;6.90;81.50;;;;;;10807411;32;20055;-73
2022/01/25 05:00:48;;;;;;;14.52;10.48;;;7.20;80.90;;;;;;10756152;33;20017;-73
2022/01/25 05:06:52;;;;;;;9.82;6.35;;;7.10;80.70;;;;;;10755761;33;20025;-73
2022/01/25 05:13:14;;;;;;;10.45;6.87;;;7.20;81.00;;;;;;10755560;33;20356;-73
2022/01/25 05:25:20;;;;;;;13.40;8.32;;;7.20;80.90;;;;;;10755255;33;20055;-73
2022/01/25 05:31:22;;;;;;;13.95;9.38;;;7.30;80.70;;;;;;10755109;33;20020;-74
2022/01/25 05:37:25;;;;;;;11.27;7.43;;;7.50;80.30;;;;;;10754832;33;20020;-73
2022/01/25 05:49:47;;;;;;;13.05;9.25;;;7.70;79.70;;;;;;10804749;32;20329;-74
2022/01/25 05:55:50;;;;;;;10.40;7.18;;;7.70;79.80;;;;;;10754412;33;20021;-74
2022/01/25 06:01:52;;;;;;;11.20;7.72;;;7.90;79.40;;;;;;10754225;33;20020;-74
2022/01/25 06:07:54;;;;;;;10.07;6.82;;;7.40;79.60;;;;;;10754083;33;20373;-74
2022/01/25 06:13:57;;;;;;;10.23;6.65;;;6.90;80.40;;;;;;10754024;33;20016;-73
2022/01/25 06:19:59;;;;;;;9.82;6.43;;;6.70;81.00;;;;;;10749681;33;20329;-73
2022/01/25 06:26:01;;;;;;;12.65;6.82;;;6.70;81.20;;;;;;10753623;33;20352;-75
2022/01/25 06:32:03;;;;;;;12.10;8.43;;;7.00;81.30;;;;;;10753022;33;20059;-72
2022/01/25 06:38:06;;;;;;;11.45;8.70;;;7.30;80.50;;;;;;10753189;33;20016;-71
2022/01/25 06:44:08;;;;;;;9.75;7.22;;;7.10;80.50;;;;;;10752590;33;20021;-71
2022/01/25 06:50:12;;;;;;;12.45;9.25;;;7.20;80.60;;;;;;10749348;33;20062;-71
2022/01/25 06:56:14;;;;;;;11.48;8.02;;;6.90;80.60;;;;;;10752622;33;20021;-71
2022/01/25 07:02:16;;;;;;;14.68;10.23;;;7.20;81.20;;;;;;10751296;33;20062;-72
2022/01/25 07:08:18;;;;;;;14.45;10.38;;;7.70;81.00;;;;;;10736315;33;20025;-70
2022/01/25 07:14:20;;;;;;;12.70;8.02;;;7.70;80.10;;;;;;10735374;33;20032;-69
2022/01/25 07:20:23;;;;;;;13.55;9.73;;;7.80;80.20;;;;;;10745912;33;20032;-71
2022/01/25 07:26:25;;;;;;;11.85;8.38;;;8.00;80.00;;;;;;10751238;33;20013;-70
2022/01/25 07:32:37;;;;;;;17.05;10.52;;;8.20;79.80;;;;;;10748180;33;20357;-71
2022/01/25 07:38:39;;;;;;;14.70;9.35;;;8.60;79.60;;;;;;10751455;33;20016;-72
2022/01/25 07:44:41;;;;;;;14.48;9.25;;;8.70;79.20;;;;;;10795840;32;20032;-71
2022/01/25 07:50:43;;;;;;;16.25;8.73;;;8.70;79.00;;;;;;10751311;33;20043;-71
2022/01/25 07:56:46;;;;;;;11.18;7.97;;;8.70;78.90;;;;;;10744877;33;20025;-74
2022/01/25 08:02:52;;;;;;;10.80;8.57;;;8.80;79.10;;;;;;10804046;32;20086;-74
2022/01/25 08:08:54;;;;;;;12.37;9.02;;;8.90;79.10;;;;;;10806788;32;20062;-74
2022/01/25 08:14:58;;;;;;;9.02;6.20;;;8.90;78.80;;;;;;10757334;33;20017;-74
2022/01/25 08:21:00;;;;;;;13.85;9.55;;;8.90;78.70;;;;;;10757207;33;20384;-74
2022/01/25 08:27:03;;;;;;;10.85;6.57;;;8.90;78.70;;;;;;10756922;33;20016;-73
2022/01/25 08:33:05;;;;;;;15.98;10.68;;;8.90;78.30;;;;;;10756887;33;20385;-74
2022/01/25 08:39:08;;;;;;;10.02;6.62;;;8.70;78.70;;;;;;10807027;32;20475;-73
2022/01/25 08:45:10;;;;;;;10.30;7.05;;;8.60;79.40;;;;;;10754283;33;20059;-73
2022/01/25 08:51:13;;;;;;;12.05;8.05;;;9.00;78.90;;;;;;10749927;33;20025;-74
2022/01/25 08:57:16;;;;;;;12.13;6.07;;;9.20;78.20;;;;;;10756251;33;20325;-73
2022/01/25 09:03:18;;;;;;;13.02;7.78;;;9.10;78.50;;;;;;10756017;33;20074;-73
2022/01/25 09:09:23;;;;;;;10.50;7.10;;;9.00;78.30;;;;;;10755583;33;20050;-74
2022/01/25 09:16:04;;;;;;;12.30;8.63;;;8.70;78.30;;;;;;10754880;33;20043;-74
2022/01/25 09:22:20;;;;;;;10.63;7.05;;;8.50;78.90;;;;;;10740958;33;20078;-72
2022/01/25 09:28:22;;;;;;;13.65;7.87;;;8.50;79.30;;;;;;10718647;33;20048;-72
2022/01/25 09:34:25;;;;;;;16.17;9.35;;;8.40;78.90;;;;;;10714948;33;20017;-72
2022/01/25 09:40:28;;;;;;;10.77;6.60;;;8.40;79.10;;;;;;10718397;33;20384;-71
2022/01/25 09:46:30;;;;;;;11.50;8.38;;;8.20;79.00;;;;;;10753231;27;20063;-71
2022/01/25 09:52:33;;;;;;;12.75;7.37;;;8.50;79.40;;;;;;10800549;32;20040;-71
2022/01/25 09:58:36;;;;;;;8.52;5.43;;;8.60;78.70;;;;;;10753343;33;20047;-71
2022/01/25 10:04:41;;;;;;;14.05;8.82;;;8.30;78.60;;;;;;10753947;33;20091;-71
2022/01/25 10:10:49;;;;;;;15.35;8.88;;;8.10;78.60;;;;;;10753791;33;20397;-72
2022/01/25 10:16:55;;;;;;;14.60;9.97;;;8.00;78.50;;;;;;10753090;33;20098;-71
2022/01/25 10:23:00;;;;;;;22.13;12.30;;;8.20;78.00;;;;;;10753266;33;20016;-71
2022/01/25 10:29:04;;;;;;;22.85;16.12;;;8.20;77.60;;;;;;10749970;33;20021;-71
2022/01/25 10:35:21;;;;;;;28.15;19.23;;;8.20;77.10;;;;;;10750946;33;20062;-71
2022/01/25 10:41:31;;;;;;;35.80;21.42;;;8.10;77.40;;;;;;10751763;33;20016;-71
2022/01/25 10:47:46;;;;;;;31.42;17.55;;;8.10;77.80;;;;;;10752120;33;20051;-71
2022/01/25 10:54:04;;;;;;;22.10;14.50;;;8.10;77.70;;;;;;10771768;32;20062;-71
2022/01/25 11:00:11;;;;;;;24.02;14.85;;;8.30;77.60;;;;;;10801779;32;20397;-70
2022/01/25 11:06:13;;;;;;;23.15;16.23;;;8.60;77.90;;;;;;10749970;33;20050;-71
2022/01/25 11:12:18;;;;;;;25.62;16.40;;;8.90;77.70;;;;;;10800826;32;20024;-71
2022/01/25 11:18:20;;;;;;;25.55;17.30;;;8.90;76.80;;;;;;10748188;33;20024;-71
2022/01/25 11:24:24;;;;;;;28.05;19.05;;;8.80;77.40;;;;;;10752061;33;20044;-71
2022/01/25 11:30:26;;;;;;;29.50;18.33;;;8.80;76.90;;;;;;10749800;33;20393;-71
2022/01/25 11:36:31;;;;;;;32.08;22.15;;;8.60;77.40;;;;;;10749524;33;20074;-71
2022/01/25 11:42:37;;;;;;;24.67;17.92;;;8.90;78.30;;;;;;10749329;33;20037;-70
2022/01/25 11:48:44;;;;;;;21.67;17.42;;;9.00;77.60;;;;;;10751179;33;20033;-71
2022/01/25 11:54:51;;;;;;;28.75;19.52;;;9.20;78.20;;;;;;10750846;33;20028;-71
2022/01/25 12:00:56;;;;;;;34.90;24.73;;;9.50;77.20;;;;;;10746953;33;20016;-71
2022/01/25 12:07:11;;;;;;;27.50;18.17;;;9.60;76.40;;;;;;10750645;33;20432;-71
2022/01/25 12:13:20;;;;;;;28.10;18.48;;;9.70;77.10;;;;;;10750177;33;20032;-71
2022/01/25 12:19:51;;;;;;;25.98;18.58;;;10.00;77.10;;;;;;10748578;33;20299;-71
2022/01/25 12:25:56;;;;;;;30.08;19.48;;;10.00;77.20;;;;;;10799951;32;20016;-72
2022/01/25 12:32:21;;;;;;;29.52;21.15;;;9.80;77.00;;;;;;10812803;32;20059;-71
2022/01/25 12:39:13;;;;;;;26.60;17.42;;;9.50;76.80;;;;;;10749602;33;20341;-71
2022/01/25 12:45:24;;;;;;;27.70;20.05;;;9.50;78.50;;;;;;10749944;33;20012;-71
2022/01/25 12:51:29;;;;;;;42.65;28.45;;;9.70;77.60;;;;;;10754428;33;20027;-71
2022/01/25 12:57:34;;;;;;;47.95;29.80;;;9.60;76.70;;;;;;10755926;33;20435;-71
2022/01/25 13:03:46;;;;;;;38.28;26.70;;;9.50;77.00;;;;;;10755263;33;20444;-71
2022/01/25 13:09:55;;;;;;;45.40;28.35;;;9.50;77.10;;;;;;10798767;32;20025;-72
2022/01/25 13:16:06;;;;;;;39.47;26.70;;;9.50;77.40;;;;;;10780172;32;20059;-71
2022/01/25 13:22:13;;;;;;;38.65;24.02;;;9.80;77.00;;;;;;10753648;33;20047;-71
2022/01/25 13:35:17;;;;;;;40.28;26.33;;;10.00;76.90;;;;;;10790723;33;20024;-71
2022/01/25 13:41:28;;;;;;;46.10;30.50;;;9.80;77.00;;;;;;10792369;32;20087;-71
2022/01/25 13:47:30;;;;;;;36.55;24.12;;;9.60;77.50;;;;;;10792826;33;20027;-71
2022/01/25 13:53:33;;;;;;;53.00;31.05;;;9.50;77.50;;;;;;10793798;33;20317;-71
2022/01/25 13:59:42;;;;;;;51.28;35.17;;;9.20;77.90;;;;;;10792999;33;20028;-71
2022/01/25 14:05:45;;;;;;;57.53;36.40;;;9.30;78.90;;;;;;10762557;33;20024;-71
2022/01/25 14:24:10;;;;;;;44.53;26.83;;;9.80;78.50;;;;;;10753407;33;20047;-71
2022/01/25 14:30:16;;;;;;;40.90;28.50;;;9.70;77.30;;;;;;10755050;33;20377;-71
2022/01/25 14:36:20;;;;;;;44.30;27.90;;;9.60;75.90;;;;;;10749781;33;20032;-71
2022/01/25 14:43:07;;;;;;;35.67;23.05;;;9.60;77.90;;;;;;10746286;33;20055;-71
2022/01/25 14:49:42;;;;;;;40.47;27.27;;;9.70;78.10;;;;;;10785245;32;20028;-71
2022/01/25 14:55:45;;;;;;;30.52;20.02;;;9.80;78.00;;;;;;10776724;32;20059;-71
2022/01/25 15:01:48;;;;;;;43.67;24.73;;;9.90;78.10;;;;;;10727302;32;20401;-72
2022/01/25 15:07:51;;;;;;;40.25;26.25;;;10.30;77.30;;;;;;10735113;33;20024;-72
2022/01/25 15:14:00;;;;;;;44.15;25.27;;;10.00;75.60;;;;;;10744833;33;20063;-72
2022/01/25 15:20:05;;;;;;;53.75;31.33;;;9.80;76.50;;;;;;10749854;33;20045;-72
2022/01/25 15:26:11;;;;;;;37.63;24.70;;;9.60;76.20;;;;;;10752030;33;20047;-71
2022/01/25 15:32:13;;;;;;;47.50;31.48;;;9.30;76.00;;;;;;10751683;33;20052;-72
2022/01/25 15:38:15;;;;;;;40.80;26.30;;;9.20;76.40;;;;;;10751720;33;20021;-72
2022/01/25 15:44:19;;;;;;;36.13;21.08;;;9.10;76.50;;;;;;10801555;32;20047;-72
2022/01/25 15:50:25;;;;;;;30.77;15.40;;;9.00;77.10;;;;;;10751416;33;20028;-72
2022/01/25 15:56:29;;;;;;;24.10;15.15;;;8.90;77.50;;;;;;10751283;33;20393;-72
2022/01/25 16:02:31;;;;;;;26.75;15.80;;;8.90;78.20;;;;;;10750966;33;20052;-72
2022/01/25 16:08:34;;;;;;;29.00;16.90;;;8.70;78.60;;;;;;10750943;33;20036;-72
2022/01/25 16:14:37;;;;;;;28.00;17.12;;;8.70;79.00;;;;;;10813843;32;20419;-72
2022/01/25 16:20:39;;;;;;;29.67;19.08;;;8.80;79.00;;;;;;10750753;33;20044;-71
2022/01/25 16:26:41;;;;;;;29.80;18.73;;;8.70;79.00;;;;;;10803890;32;20338;-72
2022/01/25 16:33:10;;;;;;;31.33;18.90;;;8.60;79.40;;;;;;10756680;33;20025;-72
2022/01/25 16:39:14;;;;;;;37.43;21.73;;;8.30;79.60;;;;;;10753904;33;20047;-73
2022/01/25 16:45:19;;;;;;;32.70;20.50;;;8.20;79.80;;;;;;10806443;32;20024;-72
2022/01/25 16:51:21;;;;;;;49.63;27.75;;;7.90;79.60;;;;;;10754491;33;20028;-72
2022/01/25 16:57:23;;;;;;;41.30;27.58;;;7.80;79.20;;;;;;10756259;33;20025;-72
2022/01/25 17:03:26;;;;;;;42.17;25.85;;;7.60;79.80;;;;;;10751920;33;20060;-72
2022/01/25 17:09:28;;;;;;;48.03;26.20;;;7.60;79.40;;;;;;10755807;33;20431;-72
2022/01/25 17:15:31;;;;;;;57.60;35.42;;;7.40;79.60;;;;;;10755471;33;20020;-72
2022/01/25 17:21:33;;;;;;;65.22;40.47;;;7.20;79.60;;;;;;10755545;33;20021;-72
2022/01/25 17:27:37;;;;;;;54.45;32.95;;;7.00;79.50;;;;;;10751426;33;20358;-72
2022/01/25 17:33:39;;;;;;;35.75;25.12;;;6.90;79.90;;;;;;10754622;33;20060;-72
2022/01/25 17:39:41;;;;;;;85.10;57.90;;;7.00;80.20;;;;;;10751408;33;20043;-72
2022/01/25 17:45:47;;;;;;;66.60;42.42;;;7.00;79.80;;;;;;10756773;27;20078;-73
2022/01/25 17:51:53;;;;;;;44.28;26.58;;;6.90;79.90;;;;;;10751439;33;20068;-73
2022/01/25 17:57:55;;;;;;;34.67;23.58;;;6.90;80.10;;;;;;10752390;33;20058;-73
2022/01/25 18:03:57;;;;;;;35.35;23.58;;;7.00;80.40;;;;;;10752514;33;20024;-73
2022/01/25 18:09:59;;;;;;;38.60;22.58;;;7.20;80.40;;;;;;10804233;32;20086;-73
2022/01/25 18:16:03;;;;;;;40.70;24.40;;;7.20;80.40;;;;;;10753886;33;20043;-74
2022/01/25 18:22:19;;;;;;;36.58;21.17;;;7.20;80.60;;;;;;10750267;33;20020;-73
2022/01/25 18:28:24;;;;;;;33.53;20.48;;;7.20;80.40;;;;;;10749932;33;20051;-73
2022/01/25 18:34:29;;;;;;;40.50;23.80;;;7.30;80.70;;;;;;10811795;32;20024;-73
2022/01/25 18:40:31;;;;;;;60.75;35.17;;;7.40;80.30;;;;;;10752379;33;20017;-73
2022/01/25 18:46:34;;;;;;;51.40;32.25;;;7.20;80.40;;;;;;10751694;33;20029;-74
2022/01/25 18:52:36;;;;;;;51.83;32.65;;;7.20;80.40;;;;;;10752920;33;20344;-73
2022/01/25 18:58:41;;;;;;;51.67;30.33;;;7.00;80.40;;;;;;10752623;33;20024;-74
2022/01/25 19:04:44;;;;;;;60.50;36.92;;;7.10;81.10;;;;;;10814646;32;20032;-73
2022/01/25 19:11:30;;;;;;;63.60;35.65;;;7.10;80.40;;;;;;10751093;33;20094;-73
2022/01/25 19:17:33;;;;;;;61.33;37.15;;;6.90;80.50;;;;;;10801606;32;20419;-73
2022/01/25 19:23:35;;;;;;;51.75;31.05;;;7.00;80.80;;;;;;10801067;32;20044;-73
2022/01/25 19:29:41;;;;;;;40.35;24.90;;;6.90;80.70;;;;;;10746714;33;20020;-73
2022/01/25 19:35:47;;;;;;;41.37;24.48;;;6.80;80.80;;;;;;10801049;32;20059;-72
2022/01/25 19:41:50;;;;;;;45.15;24.85;;;6.80;80.60;;;;;;10750855;33;20375;-72
2022/01/25 19:47:52;;;;;;;40.42;25.12;;;6.70;81.00;;;;;;10748271;33;20029;-72
2022/01/25 19:53:57;;;;;;;39.72;26.17;;;6.90;81.40;;;;;;10750420;33;20025;-73
2022/01/25 19:59:59;;;;;;;38.00;24.40;;;6.90;81.30;;;;;;10758931;33;20341;-72
2022/01/25 20:06:04;;;;;;;36.90;24.23;;;6.90;81.40;;;;;;10762592;33;20039;-72
2022/01/25 20:12:29;;;;;;;49.42;29.77;;;6.90;81.30;;;;;;10762244;32;20117;-73
2022/01/25 20:18:34;;;;;;;41.15;26.48;;;7.30;81.60;;;;;;10812240;32;20389;-73
2022/01/25 20:25:04;;;;;;;69.75;39.35;;;7.50;80.60;;;;;;10762304;32;20303;-73
2022/01/25 20:31:10;;;;;;;54.10;32.58;;;7.70;81.10;;;;;;10763500;32;20059;-73
2022/01/25 20:37:18;;;;;;;47.30;32.55;;;8.00;80.40;;;;;;10761880;33;20462;-73
2022/01/25 20:43:27;;;;;;;49.30;27.45;;;7.90;80.10;;;;;;10759661;32;20017;-74
2022/01/25 20:49:29;;;;;;;48.35;30.10;;;7.40;80.50;;;;;;10761538;33;20424;-74
2022/01/25 20:55:30;;;;;;;42.75;27.00;;;7.20;81.10;;;;;;10762648;33;20013;-73
2022/01/25 21:01:34;;;;;;;48.65;30.42;;;7.00;81.40;;;;;;10761437;32;20024;-73
2022/01/25 21:07:36;;;;;;;56.58;35.30;;;7.20;81.60;;;;;;10810901;32;20028;-73
2022/01/25 21:13:41;;;;;;;39.22;26.85;;;7.00;80.70;;;;;;10757698;32;20059;-73
2022/01/25 21:19:43;;;;;;;63.15;36.40;;;6.70;81.30;;;;;;10755100;33;20025;-74
2022/01/25 21:25:47;;;;;;;66.70;38.95;;;6.50;81.10;;;;;;10754697;33;20384;-73
2022/01/25 21:31:49;;;;;;;55.80;33.17;;;6.20;81.20;;;;;;10817446;32;20016;-73
2022/01/25 21:37:55;;;;;;;51.50;31.67;;;6.40;82.00;;;;;;10754619;32;20051;-73
2022/01/25 21:44:02;;;;;;;54.13;33.40;;;6.70;81.70;;;;;;10754757;33;20317;-73
2022/01/25 21:50:04;;;;;;;49.75;28.23;;;6.50;81.40;;;;;;10754257;33;20432;-73
2022/01/25 21:56:45;;;;;;;95.05;49.58;;;6.30;81.60;;;;;;10751725;33;20020;-74
2022/01/25 22:02:52;;;;;;;87.50;39.30;;;6.20;81.80;;;;;;10754394;33;20047;-74
2022/01/25 22:08:59;;;;;;;61.92;32.40;;;6.10;81.20;;;;;;10754245;33;20051;-73
2022/01/25 22:15:02;;;;;;;83.93;43.67;;;5.90;81.40;;;;;;10803988;32;20025;-74
2022/01/25 22:21:06;;;;;;;66.18;36.13;;;5.70;81.10;;;;;;10753504;33;20047;-72
2022/01/25 22:27:08;;;;;;;60.05;36.15;;;5.70;81.40;;;;;;10751445;33;20381;-72
2022/01/25 22:33:11;;;;;;;91.28;54.58;;;5.70;81.50;;;;;;10753357;33;20013;-72
2022/01/25 22:39:15;;;;;;;53.72;29.55;;;5.70;81.30;;;;;;10753252;33;20048;-72
2022/01/25 22:46:10;;;;;;;60.38;33.55;;;5.70;81.10;;;;;;10782513;32;20059;-72
2022/01/25 22:52:12;;;;;;;66.10;33.28;;;5.70;81.30;;;;;;10753060;33;20028;-72
2022/01/25 22:58:15;;;;;;;100.03;47.60;;;5.70;81.60;;;;;;10752895;33;20299;-73
2022/01/25 23:04:17;;;;;;;75.05;44.25;;;5.70;81.30;;;;;;10752710;33;20424;-72
2022/01/25 23:10:19;;;;;;;80.05;42.25;;;5.60;81.50;;;;;;10752439;33;20013;-72
2022/01/25 23:16:32;;;;;;;66.32;38.70;;;5.50;81.50;;;;;;10752548;33;20381;-72
2022/01/25 23:22:34;;;;;;;75.12;37.97;;;5.40;81.30;;;;;;10802068;32;20028;-73
2022/01/25 23:28:56;;;;;;;59.40;31.15;;;5.50;81.60;;;;;;10752163;33;20021;-73
2022/01/25 23:35:09;;;;;;;74.57;36.78;;;5.50;81.70;;;;;;10751326;33;20055;-72
2022/01/25 23:41:21;;;;;;;51.28;27.02;;;5.60;81.60;;;;;;10801810;32;20393;-72
2022/01/25 23:47:35;;;;;;;49.13;24.33;;;5.60;81.80;;;;;;10801571;32;20025;-72
